sensor_id;sensor_type;location;lat;lon;timestamp;P1;durP1;ratioP1;P2;durP2;ratioP2
2724;SDS011;1370;52.596;13.112;2022-12-07T00:00:42;16.17;;;9.60;;
2724;SDS011;1370;52.596;13.112;2022-12-07T00:03:07;10.10;;;8.50;;
2724;SDS011;1370;52.596;13.112;2022-12-07T00:05:32;12.57;;;8.90;;
2724;SDS011;1370;52.596;13.112;2022-12-07T00:07:58;12.20;;;8.27;;
2724;SDS011;1370;52.596;13.112;2022-12-07T00:10:23;13.57;;;8.77;;
2724;SDS011;1370;52.596;13.112;2022-12-07T00:12:48;15.40;;;10.20;;
2724;SDS011;1370;52.596;13.112;2022-12-07T00:15:15;17.20;;;9.03;;
2724;SDS011;1370;52.596;13.112;2022-12-07T00:17:40;11.90;;;8.80;;
2724;SDS011;1370;52.596;13.112;2022-12-07T00:20:05;10.67;;;8.63;;
2724;SDS011;1370;52.596;13.112;2022-12-07T00:22:31;11.03;;;8.93;;
2724;SDS011;1370;52.596;13.112;2022-12-07T00:24:56;15.90;;;9.57;;
2724;SDS011;1370;52.596;13.112;2022-12-07T00:27:22;11.37;;;8.87;;
2724;SDS011;1370;52.596;13.112;2022-12-07T00:29:47;11.57;;;8.63;;
2724;SDS011;1370;52.596;13.112;2022-12-07T00:32:12;9.33;;;8.37;;
2724;SDS011;1370;52.596;13.112;2022-12-07T00:34:37;10.93;;;8.03;;
2724;SDS011;1370;52.596;13.112;2022-12-07T00:37:03;9.60;;;8.60;;
2724;SDS011;1370;52.596;13.112;2022-12-07T00:39:28;7.97;;;7.17;;
2724;SDS011;1370;52.596;13.112;2022-12-07T00:41:53;14.40;;;8.57;;
2724;SDS011;1370;52.596;13.112;2022-12-07T00:44:19;10.47;;;8.33;;
2724;SDS011;1370;52.596;13.112;2022-12-07T00:46:44;11.20;;;9.33;;
2724;SDS011;1370;52.596;13.112;2022-12-07T00:49:10;10.70;;;9.63;;
2724;SDS011;1370;52.596;13.112;2022-12-07T00:51:35;13.20;;;8.90;;
2724;SDS011;1370;52.596;13.112;2022-12-07T00:54:01;13.27;;;8.20;;
2724;SDS011;1370;52.596;13.112;2022-12-07T00:56:27;11.03;;;8.77;;
2724;SDS011;1370;52.596;13.112;2022-12-07T00:58:53;9.80;;;7.53;;
2724;SDS011;1370;52.596;13.112;2022-12-07T01:01:20;9.70;;;8.70;;
2724;SDS011;1370;52.596;13.112;2022-12-07T01:03:46;15.77;;;8.50;;
2724;SDS011;1370;52.596;13.112;2022-12-07T01:06:13;13.30;;;8.30;;
2724;SDS011;1370;52.596;13.112;2022-12-07T01:08:42;10.53;;;8.50;;
2724;SDS011;1370;52.596;13.112;2022-12-07T01:11:08;9.17;;;8.23;;
2724;SDS011;1370;52.596;13.112;2022-12-07T01:13:35;11.60;;;8.00;;
2724;SDS011;1370;52.596;13.112;2022-12-07T01:16:01;8.40;;;7.50;;
2724;SDS011;1370;52.596;13.112;2022-12-07T01:18:28;14.30;;;8.93;;
2724;SDS011;1370;52.596;13.112;2022-12-07T01:21:01;8.60;;;7.70;;
2724;SDS011;1370;52.596;13.112;2022-12-07T01:23:28;10.63;;;7.00;;
2724;SDS011;1370;52.596;13.112;2022-12-07T01:25:58;12.90;;;8.23;;
2724;SDS011;1370;52.596;13.112;2022-12-07T01:28:25;9.07;;;7.27;;
2724;SDS011;1370;52.596;13.112;2022-12-07T01:30:57;10.13;;;8.00;;
2724;SDS011;1370;52.596;13.112;2022-12-07T01:33:28;9.50;;;7.70;;
2724;SDS011;1370;52.596;13.112;2022-12-07T01:35:53;8.70;;;6.97;;
2724;SDS011;1370;52.596;13.112;2022-12-07T01:38:19;9.77;;;7.00;;
2724;SDS011;1370;52.596;13.112;2022-12-07T01:40:44;7.60;;;6.87;;
2724;SDS011;1370;52.596;13.112;2022-12-07T01:43:14;9.73;;;7.40;;
2724;SDS011;1370;52.596;13.112;2022-12-07T01:45:42;11.07;;;7.30;;
2724;SDS011;1370;52.596;13.112;2022-12-07T01:48:08;5.93;;;5.33;;
2724;SDS011;1370;52.596;13.112;2022-12-07T01:50:35;7.80;;;6.63;;
2724;SDS011;1370;52.596;13.112;2022-12-07T01:53:01;7.10;;;6.17;;
2724;SDS011;1370;52.596;13.112;2022-12-07T01:55:28;8.77;;;6.83;;
2724;SDS011;1370;52.596;13.112;2022-12-07T01:57:54;7.33;;;6.07;;
2724;SDS011;1370;52.596;13.112;2022-12-07T02:00:20;8.30;;;7.23;;
2724;SDS011;1370;52.596;13.112;2022-12-07T02:02:47;8.80;;;6.63;;
2724;SDS011;1370;52.596;13.112;2022-12-07T02:05:15;6.50;;;5.97;;
2724;SDS011;1370;52.596;13.112;2022-12-07T02:07:41;7.03;;;6.40;;
2724;SDS011;1370;52.596;13.112;2022-12-07T02:10:18;7.23;;;6.30;;
2724;SDS011;1370;52.596;13.112;2022-12-07T02:12:47;8.73;;;7.40;;
2724;SDS011;1370;52.596;13.112;2022-12-07T02:15:14;6.97;;;6.27;;
2724;SDS011;1370;52.596;13.112;2022-12-07T02:17:47;6.90;;;6.20;;
2724;SDS011;1370;52.596;13.112;2022-12-07T02:20:28;7.70;;;6.43;;
2724;SDS011;1370;52.596;13.112;2022-12-07T02:30:37;8.03;;;7.27;;
2724;SDS011;1370;52.596;13.112;2022-12-07T02:33:10;9.83;;;8.07;;
2724;SDS011;1370;52.596;13.112;2022-12-07T02:35:46;7.30;;;6.60;;
2724;SDS011;1370;52.596;13.112;2022-12-07T02:40:52;8.33;;;7.03;;
2724;SDS011;1370;52.596;13.112;2022-12-07T02:43:25;9.70;;;7.40;;
2724;SDS011;1370;52.596;13.112;2022-12-07T02:45:54;9.20;;;7.37;;
2724;SDS011;1370;52.596;13.112;2022-12-07T02:48:21;13.07;;;8.70;;
2724;SDS011;1370;52.596;13.112;2022-12-07T02:50:48;9.40;;;6.90;;
2724;SDS011;1370;52.596;13.112;2022-12-07T02:53:34;7.80;;;7.00;;
2724;SDS011;1370;52.596;13.112;2022-12-07T02:56:03;8.83;;;7.80;;
2724;SDS011;1370;52.596;13.112;2022-12-07T03:01:10;11.90;;;7.80;;
2724;SDS011;1370;52.596;13.112;2022-12-07T03:03:47;14.10;;;8.40;;
2724;SDS011;1370;52.596;13.112;2022-12-07T03:06:22;9.90;;;8.73;;
2724;SDS011;1370;52.596;13.112;2022-12-07T03:08:56;11.13;;;8.03;;
2724;SDS011;1370;52.596;13.112;2022-12-07T03:11:29;10.50;;;8.57;;
2724;SDS011;1370;52.596;13.112;2022-12-07T03:14:05;11.60;;;8.73;;
2724;SDS011;1370;52.596;13.112;2022-12-07T03:16:40;12.40;;;9.83;;
2724;SDS011;1370;52.596;13.112;2022-12-07T03:19:10;15.07;;;10.50;;
2724;SDS011;1370;52.596;13.112;2022-12-07T03:21:39;10.70;;;9.27;;
2724;SDS011;1370;52.596;13.112;2022-12-07T03:24:09;14.80;;;11.10;;
2724;SDS011;1370;52.596;13.112;2022-12-07T03:26:38;13.43;;;9.33;;
2724;SDS011;1370;52.596;13.112;2022-12-07T03:29:09;15.90;;;10.13;;
2724;SDS011;1370;52.596;13.112;2022-12-07T03:31:41;12.60;;;9.63;;
2724;SDS011;1370;52.596;13.112;2022-12-07T03:36:40;18.23;;;10.70;;
2724;SDS011;1370;52.596;13.112;2022-12-07T03:39:23;19.33;;;11.50;;
2724;SDS011;1370;52.596;13.112;2022-12-07T03:42:05;15.43;;;10.90;;
2724;SDS011;1370;52.596;13.112;2022-12-07T03:44:31;17.50;;;11.80;;
2724;SDS011;1370;52.596;13.112;2022-12-07T03:49:43;19.20;;;12.70;;
2724;SDS011;1370;52.596;13.112;2022-12-07T03:55:17;19.83;;;13.43;;
2724;SDS011;1370;52.596;13.112;2022-12-07T03:57:44;21.83;;;13.40;;
2724;SDS011;1370;52.596;13.112;2022-12-07T04:00:11;21.00;;;13.03;;
2724;SDS011;1370;52.596;13.112;2022-12-07T04:02:37;21.13;;;12.93;;
2724;SDS011;1370;52.596;13.112;2022-12-07T04:05:02;20.97;;;13.60;;
2724;SDS011;1370;52.596;13.112;2022-12-07T04:07:28;28.00;;;16.70;;
2724;SDS011;1370;52.596;13.112;2022-12-07T04:09:53;25.10;;;15.37;;
2724;SDS011;1370;52.596;13.112;2022-12-07T04:12:20;22.40;;;14.73;;
2724;SDS011;1370;52.596;13.112;2022-12-07T04:14:45;22.57;;;14.63;;
2724;SDS011;1370;52.596;13.112;2022-12-07T04:17:11;20.50;;;14.50;;
2724;SDS011;1370;52.596;13.112;2022-12-07T04:19:36;29.03;;;17.10;;
2724;SDS011;1370;52.596;13.112;2022-12-07T04:22:02;25.53;;;15.07;;
2724;SDS011;1370;52.596;13.112;2022-12-07T04:24:28;26.02;;;17.73;;
2724;SDS011;1370;52.596;13.112;2022-12-07T04:26:53;26.53;;;16.87;;
2724;SDS011;1370;52.596;13.112;2022-12-07T04:29:19;32.77;;;15.93;;
2724;SDS011;1370;52.596;13.112;2022-12-07T04:31:44;23.63;;;16.20;;
2724;SDS011;1370;52.596;13.112;2022-12-07T04:34:10;23.83;;;15.57;;
2724;SDS011;1370;52.596;13.112;2022-12-07T04:36:37;26.77;;;16.17;;
2724;SDS011;1370;52.596;13.112;2022-12-07T04:39:03;26.13;;;16.27;;
2724;SDS011;1370;52.596;13.112;2022-12-07T04:41:29;34.70;;;17.97;;
2724;SDS011;1370;52.596;13.112;2022-12-07T04:43:58;22.37;;;15.33;;
2724;SDS011;1370;52.596;13.112;2022-12-07T04:46:25;31.50;;;18.50;;
2724;SDS011;1370;52.596;13.112;2022-12-07T04:48:51;29.60;;;19.00;;
2724;SDS011;1370;52.596;13.112;2022-12-07T04:51:21;29.90;;;18.57;;
2724;SDS011;1370;52.596;13.112;2022-12-07T04:53:47;32.50;;;20.30;;
2724;SDS011;1370;52.596;13.112;2022-12-07T04:56:13;37.27;;;20.50;;
2724;SDS011;1370;52.596;13.112;2022-12-07T04:58:40;28.47;;;20.73;;
2724;SDS011;1370;52.596;13.112;2022-12-07T05:01:06;33.87;;;20.37;;
2724;SDS011;1370;52.596;13.112;2022-12-07T05:03:31;31.43;;;19.70;;
2724;SDS011;1370;52.596;13.112;2022-12-07T05:05:56;33.27;;;19.37;;
2724;SDS011;1370;52.596;13.112;2022-12-07T05:08:22;30.77;;;19.57;;
2724;SDS011;1370;52.596;13.112;2022-12-07T05:10:48;34.33;;;20.40;;
2724;SDS011;1370;52.596;13.112;2022-12-07T05:13:14;30.20;;;19.40;;
2724;SDS011;1370;52.596;13.112;2022-12-07T05:15:39;30.87;;;19.93;;
2724;SDS011;1370;52.596;13.112;2022-12-07T05:18:05;35.67;;;20.77;;
2724;SDS011;1370;52.596;13.112;2022-12-07T05:20:30;36.90;;;20.33;;
2724;SDS011;1370;52.596;13.112;2022-12-07T05:22:56;31.50;;;19.17;;
2724;SDS011;1370;52.596;13.112;2022-12-07T05:25:23;37.30;;;19.03;;
2724;SDS011;1370;52.596;13.112;2022-12-07T05:27:48;37.00;;;21.70;;
2724;SDS011;1370;52.596;13.112;2022-12-07T05:30:13;33.00;;;18.60;;
2724;SDS011;1370;52.596;13.112;2022-12-07T05:32:39;26.80;;;18.00;;
2724;SDS011;1370;52.596;13.112;2022-12-07T05:35:04;30.17;;;19.10;;
2724;SDS011;1370;52.596;13.112;2022-12-07T05:37:30;37.80;;;21.57;;
2724;SDS011;1370;52.596;13.112;2022-12-07T05:39:55;35.77;;;20.17;;
2724;SDS011;1370;52.596;13.112;2022-12-07T05:42:20;34.90;;;18.40;;
2724;SDS011;1370;52.596;13.112;2022-12-07T05:44:46;33.83;;;21.17;;
2724;SDS011;1370;52.596;13.112;2022-12-07T05:47:12;30.47;;;20.00;;
2724;SDS011;1370;52.596;13.112;2022-12-07T05:49:38;33.73;;;19.40;;
2724;SDS011;1370;52.596;13.112;2022-12-07T05:52:04;27.53;;;18.33;;
2724;SDS011;1370;52.596;13.112;2022-12-07T05:54:30;37.30;;;22.07;;
2724;SDS011;1370;52.596;13.112;2022-12-07T05:56:55;32.80;;;20.23;;
2724;SDS011;1370;52.596;13.112;2022-12-07T05:59:20;36.90;;;20.30;;
2724;SDS011;1370;52.596;13.112;2022-12-07T06:01:50;33.93;;;21.27;;
2724;SDS011;1370;52.596;13.112;2022-12-07T06:04:15;43.37;;;21.17;;
2724;SDS011;1370;52.596;13.112;2022-12-07T06:06:41;37.87;;;20.93;;
2724;SDS011;1370;52.596;13.112;2022-12-07T06:09:06;29.73;;;18.27;;
2724;SDS011;1370;52.596;13.112;2022-12-07T06:11:31;34.03;;;19.80;;
2724;SDS011;1370;52.596;13.112;2022-12-07T06:14:15;31.00;;;16.63;;
2724;SDS011;1370;52.596;13.112;2022-12-07T06:16:40;27.23;;;18.13;;
2724;SDS011;1370;52.596;13.112;2022-12-07T06:19:06;26.73;;;17.57;;
2724;SDS011;1370;52.596;13.112;2022-12-07T06:21:31;27.93;;;18.10;;
2724;SDS011;1370;52.596;13.112;2022-12-07T06:23:56;27.50;;;17.70;;
2724;SDS011;1370;52.596;13.112;2022-12-07T06:26:22;28.80;;;18.10;;
2724;SDS011;1370;52.596;13.112;2022-12-07T06:28:47;30.60;;;19.40;;
2724;SDS011;1370;52.596;13.112;2022-12-07T06:31:12;28.20;;;18.87;;
2724;SDS011;1370;52.596;13.112;2022-12-07T06:33:38;25.63;;;17.90;;
2724;SDS011;1370;52.596;13.112;2022-12-07T06:36:03;34.53;;;18.50;;
2724;SDS011;1370;52.596;13.112;2022-12-07T06:38:28;30.00;;;17.97;;
2724;SDS011;1370;52.596;13.112;2022-12-07T06:40:54;41.90;;;21.50;;
2724;SDS011;1370;52.596;13.112;2022-12-07T06:43:19;26.57;;;17.47;;
2724;SDS011;1370;52.596;13.112;2022-12-07T06:45:44;32.07;;;19.53;;
2724;SDS011;1370;52.596;13.112;2022-12-07T06:48:10;26.93;;;16.73;;
2724;SDS011;1370;52.596;13.112;2022-12-07T06:50:35;30.33;;;16.63;;
2724;SDS011;1370;52.596;13.112;2022-12-07T06:53:00;31.23;;;18.03;;
2724;SDS011;1370;52.596;13.112;2022-12-07T06:55:26;30.97;;;17.57;;
2724;SDS011;1370;52.596;13.112;2022-12-07T06:57:51;30.10;;;17.73;;
2724;SDS011;1370;52.596;13.112;2022-12-07T07:00:16;28.63;;;17.80;;
2724;SDS011;1370;52.596;13.112;2022-12-07T07:02:42;25.50;;;16.53;;
2724;SDS011;1370;52.596;13.112;2022-12-07T07:05:07;28.10;;;17.77;;
2724;SDS011;1370;52.596;13.112;2022-12-07T07:07:33;33.13;;;17.60;;
2724;SDS011;1370;52.596;13.112;2022-12-07T07:09:58;30.97;;;17.20;;
2724;SDS011;1370;52.596;13.112;2022-12-07T07:12:23;34.37;;;19.67;;
2724;SDS011;1370;52.596;13.112;2022-12-07T07:14:49;29.10;;;14.90;;
2724;SDS011;1370;52.596;13.112;2022-12-07T07:17:14;23.20;;;14.10;;
2724;SDS011;1370;52.596;13.112;2022-12-07T07:19:39;26.23;;;16.53;;
2724;SDS011;1370;52.596;13.112;2022-12-07T07:22:05;24.57;;;14.70;;
2724;SDS011;1370;52.596;13.112;2022-12-07T07:24:30;25.27;;;14.50;;
2724;SDS011;1370;52.596;13.112;2022-12-07T07:26:55;19.70;;;11.50;;
2724;SDS011;1370;52.596;13.112;2022-12-07T07:29:21;18.17;;;11.37;;
2724;SDS011;1370;52.596;13.112;2022-12-07T07:31:46;17.57;;;11.23;;
2724;SDS011;1370;52.596;13.112;2022-12-07T07:34:11;17.57;;;11.47;;
2724;SDS011;1370;52.596;13.112;2022-12-07T07:36:37;22.50;;;12.20;;
2724;SDS011;1370;52.596;13.112;2022-12-07T07:39:02;16.63;;;10.87;;
2724;SDS011;1370;52.596;13.112;2022-12-07T07:41:27;14.43;;;9.27;;
2724;SDS011;1370;52.596;13.112;2022-12-07T07:43:53;16.07;;;11.53;;
2724;SDS011;1370;52.596;13.112;2022-12-07T07:46:18;12.93;;;8.30;;
2724;SDS011;1370;52.596;13.112;2022-12-07T07:48:43;15.57;;;9.83;;
2724;SDS011;1370;52.596;13.112;2022-12-07T07:51:09;11.60;;;8.77;;
2724;SDS011;1370;52.596;13.112;2022-12-07T07:53:34;11.93;;;9.10;;
2724;SDS011;1370;52.596;13.112;2022-12-07T07:55:59;12.93;;;8.83;;
2724;SDS011;1370;52.596;13.112;2022-12-07T07:58:25;13.00;;;7.57;;
2724;SDS011;1370;52.596;13.112;2022-12-07T08:00:50;17.33;;;9.47;;
2724;SDS011;1370;52.596;13.112;2022-12-07T08:03:16;12.93;;;7.70;;
2724;SDS011;1370;52.596;13.112;2022-12-07T08:05:41;11.20;;;6.90;;
2724;SDS011;1370;52.596;13.112;2022-12-07T08:08:06;15.87;;;7.90;;
2724;SDS011;1370;52.596;13.112;2022-12-07T08:10:32;9.10;;;6.90;;
2724;SDS011;1370;52.596;13.112;2022-12-07T08:12:57;9.37;;;6.90;;
2724;SDS011;1370;52.596;13.112;2022-12-07T08:15:44;10.10;;;6.63;;
2724;SDS011;1370;52.596;13.112;2022-12-07T08:18:11;8.70;;;6.87;;
2724;SDS011;1370;52.596;13.112;2022-12-07T08:20:37;10.40;;;6.47;;
2724;SDS011;1370;52.596;13.112;2022-12-07T08:23:03;8.20;;;7.27;;
2724;SDS011;1370;52.596;13.112;2022-12-07T08:25:28;7.70;;;6.90;;
2724;SDS011;1370;52.596;13.112;2022-12-07T08:27:54;6.10;;;5.50;;
2724;SDS011;1370;52.596;13.112;2022-12-07T08:30:20;6.93;;;5.33;;
2724;SDS011;1370;52.596;13.112;2022-12-07T08:32:45;6.00;;;5.50;;
2724;SDS011;1370;52.596;13.112;2022-12-07T08:35:11;4.90;;;4.57;;
2724;SDS011;1370;52.596;13.112;2022-12-07T08:37:36;5.37;;;4.97;;
2724;SDS011;1370;52.596;13.112;2022-12-07T08:40:03;6.47;;;5.20;;
2724;SDS011;1370;52.596;13.112;2022-12-07T08:42:29;8.30;;;4.87;;
2724;SDS011;1370;52.596;13.112;2022-12-07T08:45:02;5.20;;;4.80;;
2724;SDS011;1370;52.596;13.112;2022-12-07T08:47:28;7.20;;;5.97;;
2724;SDS011;1370;52.596;13.112;2022-12-07T08:49:54;6.93;;;4.27;;
2724;SDS011;1370;52.596;13.112;2022-12-07T08:52:19;4.30;;;4.00;;
2724;SDS011;1370;52.596;13.112;2022-12-07T08:54:46;4.33;;;4.03;;
2724;SDS011;1370;52.596;13.112;2022-12-07T08:57:11;4.07;;;3.77;;
2724;SDS011;1370;52.596;13.112;2022-12-07T08:59:37;10.37;;;3.87;;
2724;SDS011;1370;52.596;13.112;2022-12-07T09:02:03;3.70;;;3.40;;
2724;SDS011;1370;52.596;13.112;2022-12-07T09:04:29;4.10;;;3.83;;
2724;SDS011;1370;52.596;13.112;2022-12-07T09:06:54;5.63;;;3.43;;
2724;SDS011;1370;52.596;13.112;2022-12-07T09:09:20;3.70;;;3.50;;
2724;SDS011;1370;52.596;13.112;2022-12-07T09:11:45;3.50;;;3.27;;
2724;SDS011;1370;52.596;13.112;2022-12-07T09:14:11;3.10;;;2.90;;
2724;SDS011;1370;52.596;13.112;2022-12-07T09:16:37;3.90;;;3.60;;
2724;SDS011;1370;52.596;13.112;2022-12-07T09:19:02;7.67;;;3.67;;
2724;SDS011;1370;52.596;13.112;2022-12-07T09:21:28;7.80;;;3.57;;
2724;SDS011;1370;52.596;13.112;2022-12-07T09:23:53;3.50;;;3.30;;
2724;SDS011;1370;52.596;13.112;2022-12-07T09:26:19;3.87;;;3.57;;
2724;SDS011;1370;52.596;13.112;2022-12-07T09:28:44;3.83;;;3.53;;
2724;SDS011;1370;52.596;13.112;2022-12-07T09:31:09;4.10;;;3.67;;
2724;SDS011;1370;52.596;13.112;2022-12-07T09:33:35;3.70;;;3.40;;
2724;SDS011;1370;52.596;13.112;2022-12-07T09:36:00;3.60;;;3.30;;
2724;SDS011;1370;52.596;13.112;2022-12-07T09:38:25;3.80;;;3.40;;
2724;SDS011;1370;52.596;13.112;2022-12-07T09:40:51;6.13;;;3.80;;
2724;SDS011;1370;52.596;13.112;2022-12-07T09:43:22;3.53;;;3.33;;
2724;SDS011;1370;52.596;13.112;2022-12-07T09:45:49;3.20;;;3.00;;
2724;SDS011;1370;52.596;13.112;2022-12-07T09:48:18;3.37;;;3.17;;
2724;SDS011;1370;52.596;13.112;2022-12-07T09:50:45;6.10;;;3.90;;
2724;SDS011;1370;52.596;13.112;2022-12-07T09:53:15;5.17;;;4.77;;
2724;SDS011;1370;52.596;13.112;2022-12-07T09:55:52;4.03;;;3.80;;
2724;SDS011;1370;52.596;13.112;2022-12-07T09:58:25;3.70;;;3.50;;
2724;SDS011;1370;52.596;13.112;2022-12-07T10:00:59;3.30;;;3.10;;
2724;SDS011;1370;52.596;13.112;2022-12-07T10:03:26;3.80;;;3.50;;
2724;SDS011;1370;52.596;13.112;2022-12-07T10:05:53;4.53;;;4.23;;
2724;SDS011;1370;52.596;13.112;2022-12-07T10:08:18;3.40;;;3.10;;
2724;SDS011;1370;52.596;13.112;2022-12-07T10:10:44;6.07;;;3.87;;
2724;SDS011;1370;52.596;13.112;2022-12-07T10:13:14;3.93;;;3.20;;
2724;SDS011;1370;52.596;13.112;2022-12-07T10:21:02;3.77;;;3.53;;
2724;SDS011;1370;52.596;13.112;2022-12-07T10:23:32;8.97;;;4.73;;
2724;SDS011;1370;52.596;13.112;2022-12-07T10:25:58;5.33;;;4.87;;
2724;SDS011;1370;52.596;13.112;2022-12-07T10:28:27;6.33;;;4.93;;
2724;SDS011;1370;52.596;13.112;2022-12-07T10:31:00;5.60;;;5.10;;
2724;SDS011;1370;52.596;13.112;2022-12-07T10:36:30;5.93;;;5.33;;
2724;SDS011;1370;52.596;13.112;2022-12-07T10:39:10;4.90;;;4.60;;
2724;SDS011;1370;52.596;13.112;2022-12-07T10:41:53;5.80;;;4.60;;
2724;SDS011;1370;52.596;13.112;2022-12-07T10:44:21;5.13;;;4.63;;
2724;SDS011;1370;52.596;13.112;2022-12-07T10:46:58;5.90;;;5.33;;
2724;SDS011;1370;52.596;13.112;2022-12-07T10:49:36;5.97;;;5.57;;
2724;SDS011;1370;52.596;13.112;2022-12-07T10:58:02;4.53;;;4.23;;
2724;SDS011;1370;52.596;13.112;2022-12-07T11:00:39;4.60;;;4.20;;
2724;SDS011;1370;52.596;13.112;2022-12-07T11:06:12;5.30;;;4.83;;
2724;SDS011;1370;52.596;13.112;2022-12-07T11:08:56;5.40;;;4.90;;
2724;SDS011;1370;52.596;13.112;2022-12-07T11:14:10;5.87;;;5.37;;
2724;SDS011;1370;52.596;13.112;2022-12-07T11:19:49;6.40;;;4.93;;
2724;SDS011;1370;52.596;13.112;2022-12-07T11:22:41;6.00;;;5.40;;
2724;SDS011;1370;52.596;13.112;2022-12-07T11:25:28;5.37;;;4.90;;
2724;SDS011;1370;52.596;13.112;2022-12-07T11:31:07;9.50;;;4.70;;
2724;SDS011;1370;52.596;13.112;2022-12-07T11:33:41;5.10;;;4.80;;
2724;SDS011;1370;52.596;13.112;2022-12-07T11:38:54;6.30;;;5.77;;
2724;SDS011;1370;52.596;13.112;2022-12-07T11:41:23;6.47;;;5.87;;
2724;SDS011;1370;52.596;13.112;2022-12-07T11:43:56;6.03;;;5.43;;
2724;SDS011;1370;52.596;13.112;2022-12-07T11:49:23;6.17;;;5.30;;
2724;SDS011;1370;52.596;13.112;2022-12-07T11:51:52;4.70;;;4.30;;
2724;SDS011;1370;52.596;13.112;2022-12-07T11:54:25;5.70;;;5.10;;
2724;SDS011;1370;52.596;13.112;2022-12-07T11:56:53;8.37;;;5.30;;
2724;SDS011;1370;52.596;13.112;2022-12-07T11:59:23;5.50;;;4.90;;
2724;SDS011;1370;52.596;13.112;2022-12-07T12:04:56;4.90;;;4.60;;
2724;SDS011;1370;52.596;13.112;2022-12-07T12:07:25;12.87;;;4.63;;
2724;SDS011;1370;52.596;13.112;2022-12-07T12:09:53;7.87;;;5.20;;
2724;SDS011;1370;52.596;13.112;2022-12-07T12:12:25;7.57;;;4.30;;
2724;SDS011;1370;52.596;13.112;2022-12-07T12:20:31;6.23;;;4.23;;
2724;SDS011;1370;52.596;13.112;2022-12-07T12:22:59;10.83;;;4.20;;
2724;SDS011;1370;52.596;13.112;2022-12-07T12:25:28;4.33;;;3.93;;
2724;SDS011;1370;52.596;13.112;2022-12-07T12:27:57;10.07;;;4.23;;
2724;SDS011;1370;52.596;13.112;2022-12-07T12:30:30;5.00;;;4.50;;
2724;SDS011;1370;52.596;13.112;2022-12-07T12:33:19;4.93;;;4.60;;
2724;SDS011;1370;52.596;13.112;2022-12-07T12:36:16;7.23;;;4.80;;
2724;SDS011;1370;52.596;13.112;2022-12-07T12:44:08;3.93;;;3.63;;
2724;SDS011;1370;52.596;13.112;2022-12-07T12:46:49;5.80;;;3.07;;
2724;SDS011;1370;52.596;13.112;2022-12-07T12:51:47;4.23;;;3.43;;
2724;SDS011;1370;52.596;13.112;2022-12-07T12:54:23;7.40;;;3.53;;
2724;SDS011;1370;52.596;13.112;2022-12-07T12:56:51;4.17;;;3.53;;
2724;SDS011;1370;52.596;13.112;2022-12-07T12:59:28;4.70;;;4.40;;
2724;SDS011;1370;52.596;13.112;2022-12-07T13:02:16;5.30;;;3.10;;
2724;SDS011;1370;52.596;13.112;2022-12-07T13:04:57;6.20;;;3.17;;
2724;SDS011;1370;52.596;13.112;2022-12-07T13:12:55;5.07;;;3.23;;
2724;SDS011;1370;52.596;13.112;2022-12-07T13:15:33;6.70;;;4.23;;
2724;SDS011;1370;52.596;13.112;2022-12-07T13:18:23;5.63;;;4.13;;
2724;SDS011;1370;52.596;13.112;2022-12-07T13:20:51;9.20;;;3.30;;
2724;SDS011;1370;52.596;13.112;2022-12-07T13:23:22;6.90;;;3.40;;
2724;SDS011;1370;52.596;13.112;2022-12-07T13:28:42;5.70;;;3.33;;
2724;SDS011;1370;52.596;13.112;2022-12-07T13:31:18;4.90;;;3.20;;
2724;SDS011;1370;52.596;13.112;2022-12-07T13:33:46;5.00;;;2.80;;
2724;SDS011;1370;52.596;13.112;2022-12-07T13:36:14;4.77;;;2.63;;
2724;SDS011;1370;52.596;13.112;2022-12-07T13:38:48;4.33;;;3.40;;
2724;SDS011;1370;52.596;13.112;2022-12-07T13:41:18;3.87;;;3.30;;
2724;SDS011;1370;52.596;13.112;2022-12-07T13:43:49;6.00;;;3.30;;
2724;SDS011;1370;52.596;13.112;2022-12-07T13:46:24;5.53;;;3.17;;
2724;SDS011;1370;52.596;13.112;2022-12-07T13:48:52;2.97;;;2.73;;
2724;SDS011;1370;52.596;13.112;2022-12-07T13:51:22;4.03;;;2.90;;
2724;SDS011;1370;52.596;13.112;2022-12-07T13:53:53;3.93;;;2.77;;
2724;SDS011;1370;52.596;13.112;2022-12-07T13:56:34;3.90;;;3.00;;
2724;SDS011;1370;52.596;13.112;2022-12-07T13:59:00;2.80;;;2.60;;
2724;SDS011;1370;52.596;13.112;2022-12-07T14:01:26;5.40;;;2.90;;
2724;SDS011;1370;52.596;13.112;2022-12-07T14:03:51;4.23;;;2.60;;
2724;SDS011;1370;52.596;13.112;2022-12-07T14:06:24;3.70;;;3.40;;
2724;SDS011;1370;52.596;13.112;2022-12-07T14:11:42;5.30;;;4.30;;
2724;SDS011;1370;52.596;13.112;2022-12-07T14:14:10;5.63;;;3.50;;
2724;SDS011;1370;52.596;13.112;2022-12-07T14:16:38;6.40;;;3.90;;
2724;SDS011;1370;52.596;13.112;2022-12-07T14:19:04;3.60;;;3.30;;
2724;SDS011;1370;52.596;13.112;2022-12-07T14:21:33;2.37;;;2.17;;
2724;SDS011;1370;52.596;13.112;2022-12-07T14:26:48;7.10;;;3.00;;
2724;SDS011;1370;52.596;13.112;2022-12-07T14:31:55;5.60;;;3.20;;
2724;SDS011;1370;52.596;13.112;2022-12-07T14:34:22;5.60;;;1.90;;
2724;SDS011;1370;52.596;13.112;2022-12-07T14:36:48;3.67;;;3.37;;
2724;SDS011;1370;52.596;13.112;2022-12-07T14:39:13;3.30;;;3.03;;
2724;SDS011;1370;52.596;13.112;2022-12-07T14:41:39;7.10;;;3.73;;
2724;SDS011;1370;52.596;13.112;2022-12-07T14:44:16;3.47;;;3.17;;
2724;SDS011;1370;52.596;13.112;2022-12-07T14:46:42;8.30;;;3.63;;
2724;SDS011;1370;52.596;13.112;2022-12-07T14:49:08;7.03;;;3.03;;
2724;SDS011;1370;52.596;13.112;2022-12-07T14:51:33;9.37;;;4.50;;
2724;SDS011;1370;52.596;13.112;2022-12-07T14:54:01;3.73;;;2.70;;
2724;SDS011;1370;52.596;13.112;2022-12-07T14:56:26;4.50;;;2.60;;
2724;SDS011;1370;52.596;13.112;2022-12-07T14:58:52;6.90;;;3.10;;
2724;SDS011;1370;52.596;13.112;2022-12-07T15:01:18;3.03;;;2.73;;
2724;SDS011;1370;52.596;13.112;2022-12-07T15:03:43;7.00;;;3.20;;
2724;SDS011;1370;52.596;13.112;2022-12-07T15:06:10;5.50;;;2.70;;
2724;SDS011;1370;52.596;13.112;2022-12-07T15:08:38;6.77;;;3.03;;
2724;SDS011;1370;52.596;13.112;2022-12-07T15:11:03;3.60;;;2.20;;
2724;SDS011;1370;52.596;13.112;2022-12-07T15:13:29;3.50;;;2.90;;
2724;SDS011;1370;52.596;13.112;2022-12-07T15:16:13;7.30;;;4.53;;
2724;SDS011;1370;52.596;13.112;2022-12-07T15:18:41;10.20;;;2.90;;
2724;SDS011;1370;52.596;13.112;2022-12-07T15:21:10;4.27;;;2.70;;
2724;SDS011;1370;52.596;13.112;2022-12-07T15:23:38;3.37;;;2.43;;
2724;SDS011;1370;52.596;13.112;2022-12-07T15:26:03;5.67;;;3.40;;
2724;SDS011;1370;52.596;13.112;2022-12-07T15:28:28;7.23;;;2.67;;
2724;SDS011;1370;52.596;13.112;2022-12-07T15:30:54;3.73;;;2.40;;
2724;SDS011;1370;52.596;13.112;2022-12-07T15:33:19;8.23;;;3.03;;
2724;SDS011;1370;52.596;13.112;2022-12-07T15:35:44;6.13;;;2.47;;
2724;SDS011;1370;52.596;13.112;2022-12-07T15:38:10;4.73;;;2.80;;
2724;SDS011;1370;52.596;13.112;2022-12-07T15:40:35;5.80;;;2.90;;
2724;SDS011;1370;52.596;13.112;2022-12-07T15:43:01;3.80;;;2.70;;
2724;SDS011;1370;52.596;13.112;2022-12-07T15:45:27;3.30;;;2.30;;
2724;SDS011;1370;52.596;13.112;2022-12-07T15:47:52;4.37;;;2.83;;
2724;SDS011;1370;52.596;13.112;2022-12-07T15:50:19;4.50;;;3.43;;
2724;SDS011;1370;52.596;13.112;2022-12-07T15:52:45;7.50;;;4.43;;
2724;SDS011;1370;52.596;13.112;2022-12-07T15:55:10;10.43;;;4.20;;
2724;SDS011;1370;52.596;13.112;2022-12-07T15:57:36;12.00;;;3.77;;
2724;SDS011;1370;52.596;13.112;2022-12-07T16:00:03;4.40;;;2.53;;
2724;SDS011;1370;52.596;13.112;2022-12-07T16:02:29;8.33;;;4.80;;
2724;SDS011;1370;52.596;13.112;2022-12-07T16:04:55;7.17;;;3.77;;
2724;SDS011;1370;52.596;13.112;2022-12-07T16:07:20;5.60;;;3.23;;
2724;SDS011;1370;52.596;13.112;2022-12-07T16:09:45;4.57;;;3.20;;
2724;SDS011;1370;52.596;13.112;2022-12-07T16:12:12;6.53;;;3.53;;
2724;SDS011;1370;52.596;13.112;2022-12-07T16:14:38;6.00;;;3.57;;
2724;SDS011;1370;52.596;13.112;2022-12-07T16:17:03;4.90;;;4.50;;
2724;SDS011;1370;52.596;13.112;2022-12-07T16:19:29;6.50;;;3.73;;
2724;SDS011;1370;52.596;13.112;2022-12-07T16:21:55;7.20;;;4.10;;